Terminal Aerodrome Forecast
Issued by NWS

Home | Current Version | Previous Version | Text Only | Print | Product List | Glossary On
Versions: 1 2 3 4 5 6 7 8 9 10 11 12 13 14 15 16 17 18 19 20 21 22 23 24
000
FTUS45 KVEF 182320
TAFLAS
TAF
KLAS 182320Z 1900/2006 08008KT P6SM FEW130
     FM190100 15008KT P6SM FEW130
     FM190300 20007KT P6SM SKC
     FM191400 VRB04KT P6SM SKC
     FM192100 15011KT P6SM SKC
     FM200200 20008KT P6SM SKC=

USA.gov is the U.S. government's official web portal to all federal, state and local government web resources and services.